createdAt,value
2019-01-21T00:00:19.970Z,0
2019-01-21T00:01:19.992Z,0
2019-01-21T00:03:21.965Z,0
2019-01-21T00:04:19.781Z,0
2019-01-21T00:05:20.127Z,0
2019-01-21T00:06:20.047Z,0
2019-01-21T00:07:20.049Z,0
2019-01-21T00:08:20.073Z,0
2019-01-21T00:09:34.738Z,0
2019-01-21T00:10:20.099Z,0
2019-01-21T00:11:20.100Z,0
2019-01-21T00:12:20.113Z,0
2019-01-21T00:13:20.120Z,0
2019-01-21T00:14:20.180Z,0
2019-01-21T00:15:20.138Z,0
2019-01-21T00:16:20.150Z,0
2019-01-21T00:17:27.259Z,0
2019-01-21T00:18:20.181Z,0
2019-01-21T00:19:34.846Z,0
2019-01-21T00:20:20.201Z,0
2019-01-21T00:21:20.212Z,0
2019-01-21T00:22:20.219Z,0
2019-01-21T00:23:20.232Z,0
2019-01-21T00:24:20.238Z,0
2019-01-21T00:25:20.253Z,0
2019-01-21T00:26:20.261Z,0
2019-01-21T00:27:20.273Z,0
2019-01-21T00:28:20.286Z,0
2019-01-21T00:29:20.292Z,0
2019-01-21T00:30:20.313Z,0
2019-01-21T00:31:20.365Z,0
2019-01-21T00:32:34.989Z,0
2019-01-21T00:33:20.341Z,0
2019-01-21T00:34:20.350Z,0
2019-01-21T00:35:35.025Z,0
2019-01-21T00:36:20.374Z,0
2019-01-21T00:37:20.438Z,0
2019-01-21T00:38:20.395Z,0
2019-01-21T00:39:20.461Z,0
2019-01-21T00:40:20.419Z,0
2019-01-21T00:41:20.436Z,0
2019-01-21T00:42:20.447Z,0
2019-01-21T00:43:20.459Z,0
2019-01-21T00:44:20.511Z,0
2019-01-21T00:45:20.479Z,0
2019-01-21T00:46:35.145Z,0
2019-01-21T00:47:20.544Z,0
2019-01-21T00:48:20.507Z,0
2019-01-21T00:49:20.519Z,0
2019-01-21T00:50:21.497Z,0
2019-01-21T00:51:35.200Z,0
2019-01-21T00:52:20.556Z,0
2019-01-21T00:53:20.561Z,0
2019-01-21T00:54:20.577Z,0
2019-01-21T00:56:20.597Z,0
2019-01-21T00:57:35.271Z,0
2019-01-21T00:58:20.622Z,0
2019-01-21T00:59:20.633Z,0
2019-01-21T01:00:20.651Z,0
2019-01-21T01:01:20.655Z,0
2019-01-21T01:02:20.667Z,0
2019-01-21T01:03:20.683Z,0
2019-01-21T01:04:35.351Z,0
2019-01-21T01:05:20.703Z,0
2019-01-21T01:07:35.384Z,0
2019-01-21T01:08:20.739Z,0
2019-01-21T01:09:20.746Z,0
2019-01-21T01:10:20.752Z,0
2019-01-21T01:11:20.766Z,0
2019-01-21T01:12:20.779Z,0
2019-01-21T01:13:20.885Z,0
2019-01-21T01:14:20.799Z,0
2019-01-21T01:15:20.807Z,0
2019-01-21T01:16:20.820Z,0
2019-01-21T01:17:37.187Z,0
2019-01-21T01:18:20.843Z,0
2019-01-21T01:19:20.855Z,0
2019-01-21T01:20:21.022Z,0
2019-01-21T01:21:20.875Z,0
2019-01-21T01:22:35.597Z,0
2019-01-21T01:23:20.901Z,0
2019-01-21T01:24:20.913Z,0
2019-01-21T01:25:20.924Z,0
2019-01-21T01:26:20.937Z,0
2019-01-21T01:27:20.944Z,0
2019-01-21T01:28:20.958Z,0
2019-01-21T01:29:35.680Z,0
2019-01-21T01:30:20.988Z,0
2019-01-21T01:31:20.986Z,0
2019-01-21T01:32:20.998Z,0
2019-01-21T01:33:21.018Z,0
2019-01-21T01:34:21.031Z,0
2019-01-21T01:35:21.099Z,0
2019-01-21T01:36:21.054Z,0
2019-01-21T01:37:21.063Z,0
2019-01-21T01:38:21.067Z,0
2019-01-21T01:39:21.075Z,0
2019-01-21T01:40:21.088Z,0
2019-01-21T01:41:21.111Z,0
2019-01-21T01:43:21.137Z,0
2019-01-21T01:44:21.673Z,0
2019-01-21T01:46:21.229Z,0
2019-01-21T01:48:21.200Z,0
2019-01-21T01:49:21.295Z,0
2019-01-21T01:50:21.328Z,0
2019-01-21T01:51:21.273Z,0
2019-01-21T01:52:21.291Z,0
2019-01-21T01:53:21.912Z,0
2019-01-21T01:54:35.912Z,0
2019-01-21T01:56:21.291Z,0
2019-01-21T01:57:21.312Z,0
2019-01-21T01:59:35.971Z,0
2019-01-21T02:00:35.995Z,0
2019-01-21T02:01:21.746Z,0
2019-01-21T02:02:21.598Z,0
2019-01-21T02:03:21.376Z,0
2019-01-21T02:04:21.379Z,0
2019-01-21T02:05:21.392Z,0
2019-01-21T02:06:21.386Z,0
2019-01-21T02:07:21.164Z,0
2019-01-21T02:08:21.419Z,0
2019-01-21T02:09:21.443Z,0
2019-01-21T02:10:36.123Z,0
2019-01-21T02:11:21.200Z,0
2019-01-21T02:12:21.586Z,0
2019-01-21T02:13:21.630Z,0
2019-01-21T02:14:36.145Z,0
2019-01-21T02:15:21.544Z,0
2019-01-21T02:16:21.512Z,0
2019-01-21T02:17:21.524Z,0
2019-01-21T02:18:22.107Z,0
2019-01-21T02:19:36.198Z,0
2019-01-21T02:20:21.549Z,0
2019-01-21T02:21:21.568Z,0
2019-01-21T02:23:21.586Z,0
2019-01-21T02:24:36.255Z,0
2019-01-21T02:25:21.619Z,0
2019-01-21T02:26:36.290Z,0
2019-01-21T02:27:22.099Z,0
2019-01-21T02:28:21.662Z,0
2019-01-21T02:29:21.704Z,0
2019-01-21T02:30:21.425Z,0
2019-01-21T02:31:21.689Z,0
2019-01-21T02:32:36.336Z,0
2019-01-21T02:33:22.323Z,0
2019-01-21T02:34:21.939Z,0
2019-01-21T02:35:21.971Z,0
2019-01-21T02:36:22.329Z,0
2019-01-21T02:38:21.753Z,0
2019-01-21T02:39:21.526Z,0
2019-01-21T02:40:21.768Z,0
2019-01-21T02:41:21.552Z,0
2019-01-21T02:42:36.458Z,0
2019-01-21T02:44:22.188Z,0
2019-01-21T02:46:21.843Z,0
2019-01-21T02:47:36.573Z,0
2019-01-21T02:48:21.868Z,0
2019-01-21T02:49:21.892Z,0
2019-01-21T02:50:21.896Z,0
2019-01-21T02:51:36.560Z,0
2019-01-21T02:52:36.674Z,0
2019-01-21T02:53:22.425Z,0
2019-01-21T02:54:21.920Z,0
2019-01-21T02:55:22.015Z,0
2019-01-21T02:56:21.968Z,0
2019-01-21T02:57:36.728Z,0
2019-01-21T02:58:21.971Z,0
2019-01-21T02:59:36.704Z,0
2019-01-21T03:00:22.065Z,0
2019-01-21T03:01:22.509Z,0
2019-01-21T03:02:22.027Z,0
2019-01-21T03:03:22.031Z,0
2019-01-21T03:04:22.039Z,0
2019-01-21T03:05:22.057Z,0
2019-01-21T03:06:22.117Z,0
2019-01-21T03:07:22.084Z,0
2019-01-21T03:08:22.095Z,0
2019-01-21T03:09:22.098Z,0
2019-01-21T03:10:22.735Z,0
2019-01-21T03:11:22.179Z,0
2019-01-21T03:12:36.788Z,0
2019-01-21T03:13:22.139Z,0
2019-01-21T03:14:22.163Z,0
2019-01-21T03:15:22.167Z,0
2019-01-21T03:16:36.838Z,0
2019-01-21T03:17:22.188Z,0
2019-01-21T03:18:37.391Z,0
2019-01-21T03:19:22.224Z,0
2019-01-21T03:20:22.219Z,0
2019-01-21T03:21:22.249Z,0
2019-01-21T03:22:22.242Z,0
2019-01-21T03:23:36.906Z,0
2019-01-21T03:24:36.925Z,0
2019-01-21T03:25:22.359Z,0
2019-01-21T03:26:36.963Z,0
2019-01-21T03:27:22.789Z,0
2019-01-21T03:28:22.320Z,0
2019-01-21T03:29:37.623Z,0
2019-01-21T03:30:22.369Z,0
2019-01-21T03:31:22.373Z,0
2019-01-21T03:32:37.034Z,0
2019-01-21T03:33:22.402Z,0
2019-01-21T03:34:37.126Z,0
2019-01-21T03:35:22.817Z,0
2019-01-21T03:36:22.748Z,0
2019-01-21T03:37:22.411Z,0
2019-01-21T03:38:22.431Z,0
2019-01-21T03:39:22.433Z,0
2019-01-21T03:40:37.103Z,0
2019-01-21T03:41:22.452Z,0
2019-01-21T03:42:22.490Z,0
2019-01-21T03:43:22.488Z,0
2019-01-21T03:45:37.151Z,0
2019-01-21T03:46:22.515Z,0
2019-01-21T03:47:37.172Z,0
2019-01-21T03:48:23.916Z,0
2019-01-21T03:49:22.614Z,0
2019-01-21T03:50:22.568Z,0
2019-01-21T03:51:22.613Z,0
2019-01-21T03:52:23.043Z,0
2019-01-21T03:53:37.241Z,0
2019-01-21T03:54:22.668Z,0
2019-01-21T03:56:22.629Z,0
2019-01-21T03:57:22.700Z,0
2019-01-21T03:58:22.695Z,0
2019-01-21T03:59:22.646Z,0
2019-01-21T04:00:37.337Z,0
2019-01-21T04:01:37.338Z,0
2019-01-21T04:02:22.691Z,0
2019-01-21T04:03:22.711Z,0
2019-01-21T04:04:37.441Z,0
2019-01-21T04:05:22.725Z,0
2019-01-21T04:06:22.733Z,0
2019-01-21T04:07:22.753Z,0
2019-01-21T04:08:22.753Z,0
2019-01-21T04:09:22.932Z,0
2019-01-21T04:10:23.162Z,0
2019-01-21T04:11:22.829Z,0
2019-01-21T04:12:37.450Z,0
2019-01-21T04:13:37.484Z,0
2019-01-21T04:14:22.825Z,0
2019-01-21T04:15:25.234Z,0
2019-01-21T04:16:22.861Z,0
2019-01-21T04:18:29.304Z,0
2019-01-21T04:19:22.929Z,0
2019-01-21T04:20:22.887Z,0
2019-01-21T04:21:22.948Z,0
2019-01-21T04:22:22.915Z,0
2019-01-21T04:23:22.928Z,0
2019-01-21T04:24:22.997Z,0
2019-01-21T04:25:22.958Z,0
2019-01-21T04:26:23.487Z,0
2019-01-21T04:27:23.408Z,0
2019-01-21T04:28:22.986Z,0
2019-01-21T04:30:23.008Z,0
2019-01-21T04:31:23.014Z,0
2019-01-21T04:32:37.733Z,0
2019-01-21T04:33:23.039Z,0
2019-01-21T04:34:37.709Z,0
2019-01-21T04:35:37.720Z,0
2019-01-21T04:36:23.125Z,0
2019-01-21T04:37:23.075Z,0
2019-01-21T04:38:23.099Z,0
2019-01-21T04:39:23.126Z,0
2019-01-21T04:40:37.772Z,0
2019-01-21T04:41:37.796Z,0
2019-01-21T04:42:23.156Z,0
2019-01-21T04:43:23.629Z,0
2019-01-21T04:45:23.164Z,0
2019-01-21T04:46:23.794Z,0
2019-01-21T04:47:23.201Z,0
2019-01-21T04:48:23.204Z,0
2019-01-21T04:49:23.281Z,0
2019-01-21T04:50:23.272Z,0
2019-01-21T04:51:23.257Z,0
2019-01-21T04:52:23.869Z,0
2019-01-21T04:53:23.254Z,0
2019-01-21T04:54:23.268Z,0
2019-01-21T04:55:23.051Z,0
2019-01-21T04:56:37.959Z,0
2019-01-21T04:57:23.303Z,0
2019-01-21T04:58:23.321Z,0
2019-01-21T04:59:23.355Z,0
2019-01-21T05:00:38.549Z,0
2019-01-21T05:01:23.347Z,0
2019-01-21T05:02:23.361Z,0
2019-01-21T05:03:23.371Z,0
2019-01-21T05:05:23.620Z,0
2019-01-21T05:06:23.406Z,0
2019-01-21T05:07:23.414Z,0
2019-01-21T05:08:23.489Z,0
2019-01-21T05:09:38.087Z,0
2019-01-21T05:10:23.442Z,0
2019-01-21T05:11:23.452Z,0
2019-01-21T05:12:23.482Z,0
2019-01-21T05:13:23.589Z,0
2019-01-21T05:14:38.143Z,0
2019-01-21T05:15:23.557Z,0
2019-01-21T05:17:24.375Z,0
2019-01-21T05:18:41.241Z,0
2019-01-21T05:19:23.557Z,0
2019-01-21T05:20:38.216Z,0
2019-01-21T05:21:23.571Z,0
2019-01-21T05:22:23.700Z,0
2019-01-21T05:23:23.598Z,0
2019-01-21T05:24:23.611Z,0
2019-01-21T05:25:23.950Z,0
2019-01-21T05:26:23.674Z,0
2019-01-21T05:27:23.638Z,0
2019-01-21T05:28:38.314Z,0
2019-01-21T05:29:23.664Z,0
2019-01-21T05:31:23.661Z,0
2019-01-21T05:32:23.701Z,0
2019-01-21T05:33:23.869Z,0
2019-01-21T05:34:24.178Z,0
2019-01-21T05:35:23.715Z,0
2019-01-21T05:36:38.649Z,0
2019-01-21T05:37:23.738Z,0
2019-01-21T05:39:23.745Z,0
2019-01-21T05:41:23.764Z,0
2019-01-21T05:42:38.442Z,0
2019-01-21T05:43:23.893Z,0
2019-01-21T05:44:23.554Z,0
2019-01-21T05:45:23.814Z,0
2019-01-21T05:46:23.824Z,0
2019-01-21T05:47:23.854Z,0
2019-01-21T05:49:23.853Z,0
2019-01-21T05:50:23.863Z,0
2019-01-21T05:51:23.874Z,0
2019-01-21T05:52:38.544Z,0
2019-01-21T05:53:23.892Z,0
2019-01-21T05:54:23.905Z,0
2019-01-21T05:55:23.914Z,0
2019-01-21T05:56:23.925Z,0
2019-01-21T05:57:23.941Z,0
2019-01-21T05:58:23.949Z,0
2019-01-21T05:59:24.018Z,0
2019-01-21T06:00:24.032Z,0
2019-01-21T06:01:24.034Z,0
2019-01-21T06:02:23.990Z,0
2019-01-21T06:03:24.000Z,0
2019-01-21T06:04:24.022Z,0
2019-01-21T06:05:24.033Z,0
2019-01-21T06:06:24.051Z,0
2019-01-21T06:07:38.704Z,0
2019-01-21T06:08:24.058Z,0
2019-01-21T06:09:24.090Z,0
2019-01-21T06:10:24.191Z,0
2019-01-21T06:11:24.153Z,0
2019-01-21T06:12:24.153Z,0
2019-01-21T06:13:24.110Z,0
2019-01-21T06:15:38.791Z,0
2019-01-21T06:16:24.196Z,0
2019-01-21T06:17:24.154Z,0
2019-01-21T06:19:24.179Z,0
2019-01-21T06:20:23.943Z,0
2019-01-21T06:21:24.306Z,0
2019-01-21T06:22:24.215Z,0
2019-01-21T06:23:24.223Z,0
2019-01-21T06:24:24.238Z,0
2019-01-21T06:25:24.261Z,0
2019-01-21T06:26:24.248Z,0
2019-01-21T06:27:24.314Z,0
2019-01-21T06:28:24.269Z,0
2019-01-21T06:29:24.286Z,0
2019-01-21T06:30:24.098Z,0
2019-01-21T06:31:24.306Z,0
2019-01-21T06:32:38.976Z,4
2019-01-21T06:33:24.329Z,4
2019-01-21T06:34:24.344Z,0
2019-01-21T06:35:24.354Z,0
2019-01-21T06:36:24.366Z,4
2019-01-21T06:37:24.379Z,4
2019-01-21T06:38:24.377Z,4
2019-01-21T06:39:39.100Z,4
2019-01-21T06:40:24.407Z,4
2019-01-21T06:41:24.417Z,4
2019-01-21T06:42:24.425Z,4
2019-01-21T06:43:24.438Z,8
2019-01-21T06:44:24.444Z,8
2019-01-21T06:45:24.604Z,8
2019-01-21T06:46:24.466Z,8
2019-01-21T06:47:24.475Z,12
2019-01-21T06:48:24.490Z,12
2019-01-21T06:49:24.503Z,16
2019-01-21T06:52:24.537Z,28
2019-01-21T06:53:24.600Z,28
2019-01-21T06:54:24.564Z,28
2019-01-21T06:55:39.233Z,32
2019-01-21T06:57:24.635Z,40
2019-01-21T06:58:24.598Z,48
2019-01-21T06:59:24.608Z,48
2019-01-21T07:00:24.675Z,56
2019-01-21T07:01:24.677Z,60
2019-01-21T07:02:24.640Z,64
2019-01-21T07:03:24.656Z,72
2019-01-21T07:04:24.663Z,76
2019-01-21T07:05:39.335Z,84
2019-01-21T07:06:24.688Z,84
2019-01-21T07:07:25.899Z,92
2019-01-21T07:08:24.755Z,92
2019-01-21T07:09:24.468Z,96
2019-01-21T07:10:24.732Z,104
2019-01-21T07:11:39.401Z,112
2019-01-21T07:12:24.755Z,124
2019-01-21T07:13:24.766Z,132
2019-01-21T07:14:24.769Z,140
2019-01-21T07:15:39.454Z,152
2019-01-21T07:16:24.792Z,160
2019-01-21T07:17:24.862Z,172
2019-01-21T07:18:39.577Z,188
2019-01-21T07:20:24.836Z,208
2019-01-21T07:21:39.516Z,220
2019-01-21T07:22:39.518Z,236
2019-01-21T07:23:24.868Z,244
2019-01-21T07:24:39.541Z,252
2019-01-21T07:25:24.891Z,252
2019-01-21T07:26:24.902Z,260
2019-01-21T07:27:39.575Z,268
2019-01-21T07:28:24.684Z,276
2019-01-21T07:29:24.937Z,300
2019-01-21T07:30:24.949Z,316
2019-01-21T07:31:24.966Z,320
2019-01-21T07:32:24.967Z,320
2019-01-21T07:33:25.029Z,332
2019-01-21T07:34:39.659Z,348
2019-01-21T07:35:39.665Z,372
2019-01-21T07:36:25.015Z,388
2019-01-21T07:37:39.685Z,428
2019-01-21T07:38:25.037Z,428
2019-01-21T07:39:39.709Z,412
2019-01-21T07:40:25.057Z,420
2019-01-21T07:41:25.071Z,420
2019-01-21T07:42:39.740Z,428
2019-01-21T07:43:25.094Z,436
2019-01-21T07:44:25.105Z,468
2019-01-21T07:45:25.120Z,496
2019-01-21T07:46:25.122Z,504
2019-01-21T07:47:25.133Z,524
2019-01-21T07:48:25.198Z,572
2019-01-21T07:49:25.262Z,584
2019-01-21T07:50:25.167Z,596
2019-01-21T07:51:25.281Z,608
2019-01-21T07:52:25.188Z,596
2019-01-21T07:53:25.202Z,580
2019-01-21T07:54:39.875Z,572
2019-01-21T07:55:25.223Z,556
2019-01-21T07:57:25.242Z,580
2019-01-21T07:58:25.273Z,612
2019-01-21T07:59:25.275Z,612
2019-01-21T08:00:25.280Z,600
2019-01-21T08:01:25.296Z,620
2019-01-21T08:02:25.324Z,700
2019-01-21T08:04:25.323Z,752
2019-01-21T08:05:25.338Z,748
2019-01-21T08:06:25.340Z,744
2019-01-21T08:07:40.063Z,716
2019-01-21T08:08:25.372Z,708
2019-01-21T08:09:25.379Z,720
2019-01-21T08:10:25.390Z,748
2019-01-21T08:11:40.065Z,800
2019-01-21T08:13:25.417Z,788
2019-01-21T08:14:40.093Z,772
2019-01-21T08:15:28.795Z,788
2019-01-21T08:16:25.602Z,848
2019-01-21T08:18:25.472Z,936
2019-01-21T08:19:31.576Z,964
2019-01-21T08:20:25.500Z,984
2019-01-21T08:21:40.169Z,1008
2019-01-21T08:22:25.570Z,1036
2019-01-21T08:23:40.191Z,1012
2019-01-21T08:24:25.642Z,1000
2019-01-21T08:25:25.549Z,1012
2019-01-21T08:26:25.561Z,1052
2019-01-21T08:29:25.601Z,1280
2019-01-21T08:30:40.270Z,1448
2019-01-21T08:31:25.622Z,1444
2019-01-21T08:32:40.295Z,1344
2019-01-21T08:33:25.671Z,1332
2019-01-21T08:34:25.689Z,1376
2019-01-21T08:35:25.710Z,1380
2019-01-21T08:36:25.675Z,1356
2019-01-21T08:37:25.785Z,1388
2019-01-21T08:38:25.694Z,1472
2019-01-21T08:39:25.812Z,1396
2019-01-21T08:40:25.470Z,1300
2019-01-21T08:41:25.731Z,1300
2019-01-21T08:42:25.742Z,1348
2019-01-21T08:43:25.761Z,1476
2019-01-21T08:44:25.812Z,1652
2019-01-21T08:45:25.774Z,1652
2019-01-21T08:46:40.491Z,1512
2019-01-21T08:47:26.091Z,1416
2019-01-21T08:48:25.805Z,1364
2019-01-21T08:49:30.608Z,1408
2019-01-21T08:50:25.845Z,1556
2019-01-21T08:51:25.843Z,1724
2019-01-21T08:52:25.857Z,1768
2019-01-21T08:53:25.862Z,1740
2019-01-21T08:54:40.629Z,1652
2019-01-21T08:55:25.882Z,1580
2019-01-21T08:56:25.900Z,1584
2019-01-21T08:57:25.904Z,1672
2019-01-21T08:58:25.930Z,1784
2019-01-21T08:59:40.588Z,1972
2019-01-21T09:00:25.935Z,2204
2019-01-21T09:01:25.949Z,2352
2019-01-21T09:02:40.719Z,2180
2019-01-21T09:03:26.463Z,2196
2019-01-21T09:04:25.982Z,2172
2019-01-21T09:05:25.989Z,2072
2019-01-21T09:06:26.015Z,1956
2019-01-21T09:07:26.013Z,2048
2019-01-21T09:08:26.081Z,2148
2019-01-21T09:09:26.035Z,2152
2019-01-21T09:10:26.099Z,2228
2019-01-21T09:11:26.060Z,2224
2019-01-21T09:12:26.071Z,2156
2019-01-21T09:14:26.090Z,1900
2019-01-21T09:17:40.789Z,2264
2019-01-21T09:18:26.193Z,2368
2019-01-21T09:19:26.152Z,2508
2019-01-21T09:20:26.161Z,2460
2019-01-21T09:21:26.224Z,2288
2019-01-21T09:22:26.197Z,2136
2019-01-21T09:23:26.199Z,2104
2019-01-21T09:24:26.209Z,2296
2019-01-21T09:25:26.222Z,2344
2019-01-21T09:26:26.234Z,2348
2019-01-21T09:27:26.248Z,2328
2019-01-21T09:28:26.250Z,2408
2019-01-21T09:29:26.904Z,2504
2019-01-21T09:30:40.944Z,2636
2019-01-21T09:31:26.289Z,2740
2019-01-21T09:32:26.296Z,2804
2019-01-21T09:33:26.308Z,2980
2019-01-21T09:35:26.334Z,2748
2019-01-21T09:36:26.402Z,2676
2019-01-21T09:37:26.108Z,2588
2019-01-21T09:38:26.361Z,2416
2019-01-21T09:39:26.377Z,2412
2019-01-21T09:40:26.384Z,2484
2019-01-21T09:41:26.448Z,2324
2019-01-21T09:42:26.411Z,2144
2019-01-21T09:43:41.082Z,2096
2019-01-21T09:44:26.435Z,2192
2019-01-21T09:45:41.102Z,2264
2019-01-21T09:46:41.115Z,2240
2019-01-21T09:47:26.475Z,2268
2019-01-21T09:48:26.475Z,2328
2019-01-21T09:49:46.181Z,2456
2019-01-21T09:50:26.506Z,2412
2019-01-21T09:51:26.513Z,2240
2019-01-21T09:52:26.622Z,2044
2019-01-21T09:53:26.532Z,2004
2019-01-21T09:54:26.543Z,2100
2019-01-21T09:55:26.554Z,2400
2019-01-21T09:56:26.569Z,2740
2019-01-21T09:58:26.594Z,2836
2019-01-21T09:59:41.263Z,2664
2019-01-21T10:00:41.279Z,2532
2019-01-21T10:01:41.286Z,2368
2019-01-21T10:02:26.737Z,2244
2019-01-21T10:05:41.334Z,2388
2019-01-21T10:06:26.683Z,2376
2019-01-21T10:07:26.695Z,2344
2019-01-21T10:08:26.704Z,2276
2019-01-21T10:09:26.715Z,2240
2019-01-21T10:10:26.725Z,2292
2019-01-21T10:11:41.404Z,2488
2019-01-21T10:12:26.799Z,2608
2019-01-21T10:13:26.762Z,2844
2019-01-21T10:14:26.886Z,3120
2019-01-21T10:15:41.444Z,3052
2019-01-21T10:16:26.793Z,2816
2019-01-21T10:18:26.817Z,2688
2019-01-21T10:19:26.833Z,2876
2019-01-21T10:20:26.848Z,3020
2019-01-21T10:21:41.566Z,3168
2019-01-21T10:23:26.885Z,3232
2019-01-21T10:24:26.887Z,3564
2019-01-21T10:25:26.897Z,3668
2019-01-21T10:26:26.920Z,3576
2019-01-21T10:27:26.919Z,3520
2019-01-21T10:28:27.033Z,3536
2019-01-21T10:29:26.943Z,3752
2019-01-21T10:30:26.954Z,3828
2019-01-21T10:31:26.966Z,3852
2019-01-21T10:32:26.977Z,3932
2019-01-21T10:33:26.991Z,3752
2019-01-21T10:35:27.061Z,3468
2019-01-21T10:36:27.072Z,3404
2019-01-21T10:37:41.713Z,3480
2019-01-21T10:38:27.049Z,3728
2019-01-21T10:39:41.776Z,4044
2019-01-21T10:40:27.070Z,4104
2019-01-21T10:41:27.091Z,4120
2019-01-21T10:42:27.142Z,4392
2019-01-21T10:44:27.352Z,3972
2019-01-21T10:45:27.996Z,3912
2019-01-21T10:46:27.245Z,3852
2019-01-21T10:47:27.152Z,3692
2019-01-21T10:48:27.668Z,3836
2019-01-21T10:49:41.840Z,3652
2019-01-21T10:50:27.186Z,3748
2019-01-21T10:51:27.227Z,3660
2019-01-21T10:52:41.872Z,3832
2019-01-21T10:55:27.253Z,4360
2019-01-21T10:56:27.266Z,4244
2019-01-21T10:57:27.314Z,4572
2019-01-21T10:58:27.281Z,4564
2019-01-21T10:59:27.294Z,4148
2019-01-21T11:00:27.307Z,4092
2019-01-21T11:01:27.329Z,4128
2019-01-21T11:02:41.995Z,4224
2019-01-21T11:03:27.393Z,4396
2019-01-21T11:04:27.356Z,4424
2019-01-21T11:06:27.383Z,4756
2019-01-21T11:07:27.445Z,4744
2019-01-21T11:08:27.433Z,4772
2019-01-21T11:09:33.947Z,5068
2019-01-21T11:10:42.193Z,4756
2019-01-21T11:11:27.441Z,4644
2019-01-21T11:12:27.451Z,4436
2019-01-21T11:13:42.130Z,4464
2019-01-21T11:14:27.483Z,4344
2019-01-21T11:16:27.499Z,4804
2019-01-21T11:17:27.510Z,5036
2019-01-21T11:18:27.522Z,4884
2019-01-21T11:19:43.893Z,4588
2019-01-21T11:21:27.560Z,4104
2019-01-21T11:22:27.587Z,4148
2019-01-21T11:23:27.617Z,4272
2019-01-21T11:24:42.256Z,4044
2019-01-21T11:25:27.606Z,3760
2019-01-21T11:27:27.633Z,3912
2019-01-21T11:28:27.645Z,4164
2019-01-21T11:29:27.678Z,4796
2019-01-21T11:30:27.677Z,4980
2019-01-21T11:31:30.848Z,5040
2019-01-21T11:32:42.405Z,4740
2019-01-21T11:33:27.709Z,4836
2019-01-21T11:34:42.377Z,4768
2019-01-21T11:35:27.484Z,4940
2019-01-21T11:36:27.748Z,4992
2019-01-21T11:37:27.805Z,4820
2019-01-21T11:39:27.774Z,4848
2019-01-21T11:40:42.456Z,5224
2019-01-21T11:41:27.806Z,4924
2019-01-21T11:42:27.813Z,4848
2019-01-21T11:43:42.496Z,5568
2019-01-21T11:44:27.848Z,5816
2019-01-21T11:45:27.867Z,5228
2019-01-21T11:46:27.871Z,5076
2019-01-21T11:47:27.883Z,4864
2019-01-21T11:48:27.987Z,5100
2019-01-21T11:49:42.561Z,4648
2019-01-21T11:50:42.574Z,4412
2019-01-21T11:51:27.922Z,4356
2019-01-21T11:52:27.937Z,4364
2019-01-21T11:54:27.973Z,3948
2019-01-21T11:55:42.644Z,3944
2019-01-21T11:56:42.693Z,4408
2019-01-21T11:57:28.000Z,4384
2019-01-21T11:58:28.006Z,3976
2019-01-21T11:59:28.020Z,4068
2019-01-21T12:00:28.030Z,4496
2019-01-21T12:01:28.094Z,3980
2019-01-21T12:02:28.105Z,3836
2019-01-21T12:03:30.741Z,3800
2019-01-21T12:04:28.083Z,3976
2019-01-21T12:05:28.097Z,4000
2019-01-21T12:06:28.162Z,3788
2019-01-21T12:07:29.152Z,3656
2019-01-21T12:09:28.142Z,4804
2019-01-21T12:10:28.154Z,4748
2019-01-21T12:11:42.877Z,4400
2019-01-21T12:12:42.849Z,3928
2019-01-21T12:14:28.256Z,3912
2019-01-21T12:15:28.216Z,4276
2019-01-21T12:16:28.232Z,4500
2019-01-21T12:17:28.238Z,4420
2019-01-21T12:18:28.258Z,4372
2019-01-21T12:19:42.931Z,4820
2019-01-21T12:20:28.287Z,5012
2019-01-21T12:21:28.294Z,4692
2019-01-21T12:22:42.962Z,4684
2019-01-21T12:23:42.973Z,5116
2019-01-21T12:26:28.401Z,4728
2019-01-21T12:27:43.027Z,4524
2019-01-21T12:28:28.375Z,4588
2019-01-21T12:29:28.390Z,4716
2019-01-21T12:30:28.451Z,4536
2019-01-21T12:31:28.409Z,4376
2019-01-21T12:32:28.431Z,4244
2019-01-21T12:33:28.495Z,4096
2019-01-21T12:34:28.455Z,4068
2019-01-21T12:35:28.463Z,4232
2019-01-21T12:36:28.479Z,4336
2019-01-21T12:37:28.481Z,4744
2019-01-21T12:38:28.550Z,3880
2019-01-21T12:39:28.512Z,3708
2019-01-21T12:41:29.010Z,4052
2019-01-21T12:42:28.547Z,4192
2019-01-21T12:43:28.563Z,3856
2019-01-21T12:45:28.581Z,3228
2019-01-21T12:46:28.592Z,3488
2019-01-21T12:47:28.605Z,3936
2019-01-21T12:48:28.618Z,4040
2019-01-21T12:49:28.632Z,4076
2019-01-21T12:51:28.665Z,3708
2019-01-21T12:52:28.673Z,3768
2019-01-21T12:53:28.755Z,3840
2019-01-21T12:54:28.696Z,3828
2019-01-21T12:55:28.766Z,3740
2019-01-21T12:56:28.722Z,3772
2019-01-21T12:57:28.737Z,3492
2019-01-21T12:58:28.743Z,3344
2019-01-21T12:59:43.565Z,3300
2019-01-21T13:00:28.775Z,3244
2019-01-21T13:01:28.780Z,3392
2019-01-21T13:02:28.793Z,3360
2019-01-21T13:03:28.808Z,3456
2019-01-21T13:04:43.480Z,3328
2019-01-21T13:05:28.844Z,3276
2019-01-21T13:07:28.949Z,3528
2019-01-21T13:08:28.870Z,3300
2019-01-21T13:09:28.883Z,3424
2019-01-21T13:10:28.893Z,3104
2019-01-21T13:11:28.950Z,3152
2019-01-21T13:12:43.624Z,3120
2019-01-21T13:13:43.587Z,3120
2019-01-21T13:14:28.939Z,3124
2019-01-21T13:15:43.609Z,3284
2019-01-21T13:16:28.959Z,3356
2019-01-21T13:18:29.033Z,3200
2019-01-21T13:19:29.000Z,3092
2019-01-21T13:20:49.992Z,3152
2019-01-21T13:21:34.573Z,3208
2019-01-21T13:22:29.027Z,3312
2019-01-21T13:23:28.795Z,3140
2019-01-21T13:24:29.058Z,2980
2019-01-21T13:25:29.067Z,2960
2019-01-21T13:26:29.075Z,2960
2019-01-21T13:27:29.088Z,2956
2019-01-21T13:28:43.761Z,2896
2019-01-21T13:29:29.366Z,3084
2019-01-21T13:30:29.123Z,3184
2019-01-21T13:31:43.796Z,2948
2019-01-21T13:32:29.145Z,2932
2019-01-21T13:33:29.210Z,2880
2019-01-21T13:34:29.176Z,2868
2019-01-21T13:35:29.182Z,2952
2019-01-21T13:36:29.194Z,2840
2019-01-21T13:37:29.961Z,2796
2019-01-21T13:38:29.223Z,2788
2019-01-21T13:39:29.261Z,3116
2019-01-21T13:40:29.238Z,2776
2019-01-21T13:41:29.254Z,2812
2019-01-21T13:43:29.371Z,3168
2019-01-21T13:44:29.594Z,2788
2019-01-21T13:45:29.296Z,2812
2019-01-21T13:46:29.313Z,2776
2019-01-21T13:47:43.981Z,2708
2019-01-21T13:48:29.336Z,2704
2019-01-21T13:49:29.346Z,2708
2019-01-21T13:50:29.360Z,2692
2019-01-21T13:51:29.469Z,2700
2019-01-21T13:53:29.439Z,2712
2019-01-21T13:54:29.398Z,2724
2019-01-21T13:55:44.122Z,2672
2019-01-21T13:56:29.433Z,2656
2019-01-21T13:57:29.441Z,2616
2019-01-21T13:58:29.444Z,2628
2019-01-21T13:59:44.120Z,2616
2019-01-21T14:00:29.478Z,2632
2019-01-21T14:01:29.531Z,2640
2019-01-21T14:02:44.172Z,2636
2019-01-21T14:03:29.509Z,2648
2019-01-21T14:04:29.514Z,2640
2019-01-21T14:05:50.435Z,2656
2019-01-21T14:06:29.591Z,2636
2019-01-21T14:07:29.548Z,2620
2019-01-21T14:08:29.560Z,2608
2019-01-21T14:09:29.589Z,2596
2019-01-21T14:10:29.342Z,2588
2019-01-21T14:11:29.615Z,2584
2019-01-21T14:12:30.224Z,2572
2019-01-21T14:13:33.583Z,2532
2019-01-21T14:14:29.640Z,2508
2019-01-21T14:15:44.309Z,2512
2019-01-21T14:16:29.653Z,2524
2019-01-21T14:18:29.680Z,2500
2019-01-21T14:19:33.163Z,2472
2019-01-21T14:20:29.698Z,2444
2019-01-21T14:21:29.741Z,2420
2019-01-21T14:22:29.775Z,2384
2019-01-21T14:23:32.645Z,2356
2019-01-21T14:24:29.743Z,2300
2019-01-21T14:25:29.828Z,2260
2019-01-21T14:26:29.817Z,2300
2019-01-21T14:27:44.442Z,2220
2019-01-21T14:29:29.560Z,2164
2019-01-21T14:30:29.814Z,2120
2019-01-21T14:31:29.884Z,2076
2019-01-21T14:32:29.844Z,2044
2019-01-21T14:33:29.844Z,2016
2019-01-21T14:34:44.521Z,1988
2019-01-21T14:35:29.875Z,1980
2019-01-21T14:36:29.889Z,1948
2019-01-21T14:37:30.997Z,1916
2019-01-21T14:38:29.908Z,1876
2019-01-21T14:39:29.915Z,1840
2019-01-21T14:40:29.927Z,1800
2019-01-21T14:41:29.939Z,1772
2019-01-21T14:42:29.953Z,1740
2019-01-21T14:43:29.961Z,1704
2019-01-21T14:44:30.007Z,1664
2019-01-21T14:45:29.990Z,1624
2019-01-21T14:46:30.003Z,1564
2019-01-21T14:47:30.026Z,1508
2019-01-21T14:48:30.029Z,1452
2019-01-21T14:49:30.031Z,1400
2019-01-21T14:50:50.363Z,1340
2019-01-21T14:51:44.722Z,1296
2019-01-21T14:52:30.077Z,1256
2019-01-21T14:53:30.147Z,1212
2019-01-21T14:54:29.903Z,1164
2019-01-21T14:55:30.151Z,1116
2019-01-21T14:56:30.209Z,1064
2019-01-21T14:57:31.245Z,1024
2019-01-21T14:59:36.020Z,936
2019-01-21T15:00:44.966Z,888
2019-01-21T15:01:30.232Z,848
2019-01-21T15:02:30.191Z,804
2019-01-21T15:03:30.275Z,764
2019-01-21T15:04:44.986Z,716
2019-01-21T15:05:30.344Z,688
2019-01-21T15:06:44.959Z,648
2019-01-21T15:07:30.347Z,620
2019-01-21T15:08:30.443Z,584